Time;durP1;ratioP1;P1;durP2;ratioP2;P2;SDS_P1;SDS_P2;PMS_P1;PMS_P2;Temp;Humidity;BMP_temperature;BMP_pressure;BME280_temperature;BME280_humidity;BME280_pressure;Samples;Min_cycle;Max_cycle;Signal;HPM_P1;HPM_P2
2021/11/27 00:02:08;;;;;;;16.45;3.63;;;;;;;12.94;34.35;100223.53;5052579;28;20033;-70
2021/11/27 00:04:34;;;;;;;7.57;2.65;;;;;;;12.48;35.19;100243.88;5053026;28;20095;-72
2021/11/27 00:07:00;;;;;;;10.55;2.97;;;;;;;13.08;34.24;100241.59;5052928;28;20102;-72
2021/11/27 00:09:25;;;;;;;12.07;3.35;;;;;;;12.59;34.60;100256.00;5052097;28;20438;-73
2021/11/27 00:11:51;;;;;;;10.02;2.85;;;;;;;12.21;35.40;100261.69;5049820;28;20049;-72
2021/11/27 00:14:17;;;;;;;11.23;2.38;;;;;;;12.21;35.05;100273.44;5047363;28;20021;-72
2021/11/27 00:16:43;;;;;;;10.02;2.92;;;;;;;12.56;34.84;100248.47;5038729;28;20083;-71
2021/11/27 00:19:12;;;;;;;11.07;3.10;;;;;;;12.56;34.91;100234.78;5033873;28;20029;-71
2021/11/27 00:21:39;;;;;;;14.55;2.85;;;;;;;12.44;34.65;100242.94;5033823;28;20025;-71
2021/11/27 00:24:06;;;;;;;8.57;2.30;;;;;;;12.01;34.86;100233.16;5033479;28;20375;-71
2021/11/27 00:26:31;;;;;;;7.82;1.83;;;;;;;11.83;34.30;100256.34;5050751;28;20067;-70
2021/11/27 00:28:57;;;;;;;7.45;1.95;;;;;;;11.90;33.97;100275.78;5053515;28;20103;-71
2021/11/27 00:31:25;;;;;;;6.28;2.72;;;;;;;12.11;33.55;100275.78;5053820;28;20071;-71
2021/11/27 00:33:52;;;;;;;8.68;2.08;;;;;;;12.15;33.34;100274.78;5053485;28;20086;-71
2021/11/27 00:36:18;;;;;;;10.25;2.65;;;;;;;12.49;32.92;100267.41;5053379;28;20032;-71
2021/11/27 00:38:43;;;;;;;10.00;2.55;;;;;;;12.28;33.46;100270.16;5053411;28;20025;-70
2021/11/27 00:41:10;;;;;;;9.93;2.33;;;;;;;11.88;33.21;100267.91;5053331;28;20053;-72
2021/11/27 00:43:36;;;;;;;14.43;2.67;;;;;;;13.00;31.96;100276.22;5053559;28;20088;-71
2021/11/27 00:46:02;;;;;;;8.18;1.98;;;;;;;12.23;33.13;100281.31;5052967;28;20464;-71
2021/11/27 00:48:28;;;;;;;9.65;2.25;;;;;;;11.87;33.33;100284.66;5053201;28;20550;-71
2021/11/27 00:51:03;;;;;;;12.18;2.50;;;;;;;12.49;32.40;100301.09;5053160;28;20048;-71
2021/11/27 00:53:29;;;;;;;7.38;1.90;;;;;;;11.92;33.34;100298.94;5053387;28;20031;-71
2021/11/27 00:55:55;;;;;;;7.72;2.25;;;;;;;11.30;34.57;100337.06;5053258;28;20057;-71
2021/11/27 00:58:20;;;;;;;8.35;2.45;;;;;;;12.41;32.68;100303.91;5052904;28;20483;-71
2021/11/27 01:00:50;;;;;;;6.97;1.98;;;;;;;12.12;32.86;100294.63;5052969;28;20104;-71
2021/11/27 01:03:17;;;;;;;;;;;;;;;12.08;33.01;100290.94;5053433;28;20029;-71
2021/11/27 01:05:44;;;;;;;2.40;1.23;;;;;;;12.40;32.31;100299.56;5052819;28;19956;-71
2021/11/27 01:08:10;;;;;;;12.25;2.25;;;;;;;12.19;32.59;100314.06;5052831;28;20032;-71
2021/11/27 01:10:46;;;;;;;12.45;2.30;;;;;;;12.05;32.27;100324.47;5052608;28;20055;-71
2021/11/27 01:13:12;;;;;;;7.10;2.08;;;;;;;11.67;32.08;100310.81;5052863;28;20410;-71
2021/11/27 01:15:38;;;;;;;11.50;3.00;;;;;;;12.12;31.94;100332.97;5034848;28;20059;-71
2021/11/27 01:18:06;;;;;;;10.85;2.10;;;;;;;11.79;31.73;100345.69;5034733;28;20574;-71
2021/11/27 01:20:46;;;;;;;11.25;1.92;;;;;;;11.51;31.83;100348.91;5052604;28;20498;-71
2021/11/27 01:23:11;;;;;;;;;;;;;;;11.77;31.58;100369.84;5053160;28;20448;-71
2021/11/27 01:25:37;;;;;;;6.78;1.98;;;;;;;12.12;31.35;100365.81;5034930;28;20003;-71
2021/11/27 01:28:04;;;;;;;9.13;2.63;;;;;;;12.69;30.49;100373.44;5052542;28;20031;-71
2021/11/27 01:30:30;;;;;;;5.25;1.92;;;;;;;12.61;30.57;100377.06;5052499;28;20032;-71
2021/11/27 01:32:56;;;;;;;9.20;2.00;;;;;;;13.02;30.05;100375.41;5052481;28;20033;-71
2021/11/27 01:35:22;;;;;;;14.63;2.30;;;;;;;12.82;30.68;100387.22;5052509;28;20025;-71
2021/11/27 01:37:48;;;;;;;15.70;2.20;;;;;;;12.54;30.88;100393.22;5052316;28;20039;-71
2021/11/27 01:40:19;;;;;;;9.30;3.55;;;;;;;12.17;31.68;100395.78;5052402;28;20028;-71
2021/11/27 01:42:45;;;;;;;10.05;2.53;;;;;;;12.58;31.63;100385.97;5034504;28;20029;-71
2021/11/27 01:45:15;;;;;;;11.18;2.30;;;;;;;13.01;31.02;100407.53;5052077;28;20053;-71
2021/11/27 01:47:47;;;;;;;8.70;2.17;;;;;;;12.56;31.98;100418.38;5052256;28;20415;-71
2021/11/27 01:50:13;;;;;;;9.90;1.70;;;;;;;12.48;32.66;100398.13;5051675;28;20121;-71
2021/11/27 01:52:39;;;;;;;6.57;1.80;;;;;;;12.57;32.67;100411.78;5052295;28;20553;-71
2021/11/27 01:55:05;;;;;;;5.47;1.85;;;;;;;12.28;33.40;100434.53;5052060;28;20601;-71
2021/11/27 01:57:31;;;;;;;8.25;2.20;;;;;;;12.07;34.03;100429.00;5050850;28;20057;-71
2021/11/27 01:59:58;;;;;;;8.88;1.80;;;;;;;11.71;34.70;100443.13;5052485;28;20562;-71
2021/11/27 02:02:24;;;;;;;15.32;2.35;;;;;;;12.13;33.95;100435.91;5052153;28;20139;-71
2021/11/27 02:04:51;;;;;;;4.00;1.70;;;;;;;12.30;33.67;100436.94;5052147;28;20051;-71
2021/11/27 02:07:17;;;;;;;8.23;2.10;;;;;;;11.51;34.66;100454.81;5052275;28;20060;-71
2021/11/27 02:09:42;;;;;;;6.50;2.40;;;;;;;11.87;34.39;100449.72;5052107;28;20463;-71
2021/11/27 02:12:11;;;;;;;7.32;1.80;;;;;;;11.62;34.31;100424.00;5052014;28;20037;-71
2021/11/27 02:14:38;;;;;;;6.18;1.90;;;;;;;12.28;33.74;100442.75;5031443;28;20052;-71
2021/11/27 02:17:04;;;;;;;7.03;2.25;;;;;;;12.20;33.54;100446.34;5052144;28;20075;-71
2021/11/27 02:19:30;;;;;;;11.68;2.03;;;;;;;12.15;34.14;100454.72;5051940;28;20490;-71
2021/11/27 02:21:56;;;;;;;5.40;2.00;;;;;;;11.93;34.51;100464.00;5052024;28;20029;-71
2021/11/27 02:24:23;;;;;;;9.75;1.92;;;;;;;12.10;34.35;100488.59;5055776;28;20427;-70
2021/11/27 02:26:49;;;;;;;10.40;2.90;;;;;;;11.77;34.96;100468.41;5055798;28;20154;-71
2021/11/27 02:29:20;;;;;;;10.32;2.10;;;;;;;11.35;35.82;100455.31;5055751;28;20078;-71
2021/11/27 02:31:46;;;;;;;6.30;1.52;;;;;;;11.58;35.95;100466.06;5055834;28;20033;-71
2021/11/27 02:34:12;;;;;;;6.47;1.70;;;;;;;11.58;36.00;100474.25;5056028;28;20025;-70
2021/11/27 02:36:41;;;;;;;6.40;3.03;;;;;;;11.49;36.46;100478.97;5055922;28;20037;-71
2021/11/27 02:39:10;;;;;;;5.43;1.77;;;;;;;11.33;37.14;100467.69;5055488;28;20070;-71
2021/11/27 02:41:36;;;;;;;7.68;1.52;;;;;;;10.75;38.65;100474.50;5055888;28;20036;-71
2021/11/27 02:44:02;;;;;;;8.02;1.58;;;;;;;11.35;37.73;100470.94;5037705;28;20479;-70
2021/11/27 02:46:28;;;;;;;3.80;1.35;;;;;;;11.31;38.23;100475.44;5055307;28;20052;-70
2021/11/27 02:48:53;;;;;;;5.47;1.75;;;;;;;10.49;40.22;100471.72;5055419;28;20024;-71
2021/11/27 02:51:20;;;;;;;6.85;2.10;;;;;;;11.06;39.43;100482.53;5055400;28;20017;-71
2021/11/27 02:53:46;;;;;;;10.23;1.52;;;;;;;10.73;40.21;100487.66;5055394;28;20041;-70
2021/11/27 02:56:12;;;;;;;7.47;2.47;;;;;;;10.85;40.52;100476.91;5055475;28;20032;-71
2021/11/27 02:58:38;;;;;;;7.45;1.60;;;;;;;10.49;41.34;100477.16;5055282;28;20025;-70
2021/11/27 03:01:07;;;;;;;7.90;1.50;;;;;;;10.76;40.91;100485.09;5055320;28;20031;-71
2021/11/27 03:03:39;;;;;;;9.35;2.75;;;;;;;10.89;40.31;100491.56;5055180;28;20029;-71
2021/11/27 03:06:06;;;;;;;7.65;1.67;;;;;;;10.63;40.76;100486.03;5055038;28;20029;-71
2021/11/27 03:08:33;;;;;;;10.18;1.85;;;;;;;11.01;40.05;100482.69;5055117;28;20029;-71
2021/11/27 03:11:00;;;;;;;8.23;2.17;;;;;;;10.87;39.93;100468.38;5055109;28;20424;-71
2021/11/27 03:13:30;;;;;;;8.75;1.90;;;;;;;10.46;40.93;100484.09;5054921;28;20021;-71
2021/11/27 03:15:55;;;;;;;7.18;1.98;;;;;;;10.20;41.56;100497.66;5055002;28;20499;-71
2021/11/27 03:18:21;;;;;;;5.45;2.30;;;;;;;10.60;40.70;100505.81;5054960;28;20028;-71
2021/11/27 03:20:52;;;;;;;6.93;1.45;;;;;;;10.67;40.49;100503.41;5036899;28;20025;-71
2021/11/27 03:23:19;;;;;;;3.67;1.38;;;;;;;10.58;40.43;100508.06;5054486;28;20062;-71
2021/11/27 03:25:45;;;;;;;5.07;1.90;;;;;;;10.69;40.29;100514.81;5054596;28;20100;-71
2021/11/27 03:28:10;;;;;;;8.73;3.28;;;;;;;10.52;40.42;100501.94;5036911;28;20112;-71
2021/11/27 03:30:37;;;;;;;5.57;2.38;;;;;;;11.24;39.09;100500.53;5036785;28;20029;-71
2021/11/27 03:33:03;;;;;;;6.18;1.33;;;;;;;10.33;40.78;100523.25;5054596;28;20028;-71
2021/11/27 03:35:29;;;;;;;8.30;2.03;;;;;;;10.57;40.62;100500.97;5036672;28;20025;-71
2021/11/27 03:37:55;;;;;;;5.65;1.63;;;;;;;11.12;39.48;100514.06;5054763;28;20031;-71
2021/11/27 03:40:22;;;;;;;5.68;1.30;;;;;;;10.69;40.45;100520.28;5054551;28;20040;-71
2021/11/27 03:42:47;;;;;;;3.67;1.00;;;;;;;10.42;40.63;100528.72;5054506;28;20365;-72
2021/11/27 03:45:18;;;;;;;4.90;1.27;;;;;;;10.92;39.82;100561.97;5033061;28;20056;-71
2021/11/27 03:47:59;;;;;;;7.53;1.20;;;;;;;11.36;38.91;100568.28;5034479;28;20384;-71
2021/11/27 03:50:29;;;;;;;4.28;1.38;;;;;;;11.32;38.84;100603.66;5034469;28;20061;-71
2021/11/27 03:52:55;;;;;;;8.32;1.13;;;;;;;10.82;39.58;100581.41;5034664;28;20022;-71
2021/11/27 03:55:20;;;;;;;4.30;1.00;;;;;;;11.30;38.61;100577.75;5034332;28;20029;-71
2021/11/27 03:57:46;;;;;;;6.43;1.02;;;;;;;11.20;38.43;100575.34;5034314;28;20405;-73
2021/11/27 04:00:12;;;;;;;3.42;1.35;;;;;;;10.56;39.83;100592.25;5034265;28;20032;-71
2021/11/27 04:02:38;;;;;;;2.42;0.80;;;;;;;10.22;39.81;100609.28;5034198;28;20017;-74
2021/11/27 04:05:04;;;;;;;2.78;1.77;;;;;;;10.47;39.80;100607.81;5034173;28;20022;-71
2021/11/27 04:07:30;;;;;;;7.80;1.48;;;;;;;11.34;38.03;100617.84;5034037;28;20033;-71
2021/11/27 04:09:55;;;;;;;4.28;1.05;;;;;;;11.02;38.80;100619.06;5034068;28;20039;-71
2021/11/27 04:12:21;;;;;;;4.32;0.93;;;;;;;10.93;39.01;100615.50;5034019;28;20033;-70
2021/11/27 04:14:46;;;;;;;3.15;0.70;;;;;;;10.51;39.88;100639.66;5033847;28;20029;-71
2021/11/27 04:17:12;;;;;;;11.40;1.35;;;;;;;10.98;39.10;100626.31;5033906;28;20461;-71
2021/11/27 04:19:38;;;;;;;5.88;1.75;;;;;;;11.06;39.23;100639.19;5033944;28;20148;-71
2021/11/27 04:22:04;;;;;;;4.35;1.00;;;;;;;11.29;38.63;100626.19;5033879;28;20026;-70
2021/11/27 04:24:29;;;;;;;1.77;1.00;;;;;;;11.27;38.42;100633.13;5033710;28;20108;-71
2021/11/27 04:26:55;;;;;;;4.32;0.90;;;;;;;11.23;38.63;100641.16;5033922;28;20133;-70
2021/11/27 04:29:21;;;;;;;4.40;1.02;;;;;;;10.90;39.24;100637.22;5033639;28;20464;-71
2021/11/27 04:31:47;;;;;;;2.75;1.10;;;;;;;10.86;39.37;100641.69;5033684;28;20033;-71
2021/11/27 04:34:13;;;;;;;5.43;1.17;;;;;;;10.45;40.38;100656.50;5032298;28;20026;-70
2021/11/27 04:36:38;;;;;;;4.38;1.02;;;;;;;10.72;39.63;100667.22;5033587;28;20368;-70
2021/11/27 04:39:04;;;;;;;6.07;0.95;;;;;;;10.59;40.04;100675.53;5033482;28;20033;-71
2021/11/27 04:41:30;;;;;;;1.73;0.80;;;;;;;10.65;40.22;100666.06;5033738;28;20026;-71
2021/11/27 04:43:56;;;;;;;5.43;1.15;;;;;;;10.33;40.75;100657.06;5033610;28;20111;-70
2021/11/27 04:46:21;;;;;;;5.22;0.98;;;;;;;10.73;40.18;100673.47;5050637;28;20049;-71
2021/11/27 04:48:47;;;;;;;5.40;1.20;;;;;;;10.77;40.04;100696.34;5053267;28;20380;-71
2021/11/27 04:51:13;;;;;;;4.35;1.38;;;;;;;10.05;41.91;100697.34;5053264;28;20032;-70
2021/11/27 04:53:39;;;;;;;6.90;1.15;;;;;;;10.64;41.39;100698.03;5053375;28;20032;-70
2021/11/27 04:56:05;;;;;;;2.85;0.70;;;;;;;10.57;41.74;100711.34;5053072;28;20463;-71
2021/11/27 04:58:31;;;;;;;4.30;1.63;;;;;;;10.41;42.17;100719.13;5053349;28;20028;-71
2021/11/27 05:00:57;;;;;;;2.72;1.10;;;;;;;10.46;42.31;100697.16;5053042;28;20518;-71
2021/11/27 05:03:22;;;;;;;5.05;0.90;;;;;;;11.16;40.63;100698.25;5053169;28;20569;-71
2021/11/27 05:05:48;;;;;;;4.65;1.42;;;;;;;11.47;39.97;100711.03;5052823;28;20055;-71
2021/11/27 05:08:15;;;;;;;5.25;1.40;;;;;;;11.31;40.62;100732.56;5052857;28;20048;-71
2021/11/27 05:10:41;;;;;;;4.20;1.42;;;;;;;11.10;41.41;100729.59;5052838;28;20499;-71
2021/11/27 05:13:07;;;;;;;6.43;0.88;;;;;;;10.39;43.16;100717.84;5052732;28;20078;-71
2021/11/27 05:15:33;;;;;;;3.72;1.65;;;;;;;10.33;43.34;100736.28;5052767;28;20108;-70
2021/11/27 05:17:58;;;;;;;4.53;1.20;;;;;;;10.98;41.64;100729.41;5052673;28;20472;-71
2021/11/27 05:20:24;;;;;;;6.20;1.70;;;;;;;10.88;42.00;100740.59;5052673;28;20028;-70
2021/11/27 05:22:49;;;;;;;3.25;0.90;;;;;;;10.78;42.07;100720.63;5052801;28;20024;-70
2021/11/27 05:25:15;;;;;;;4.78;1.30;;;;;;;11.04;41.45;100730.88;5052606;28;20029;-71
2021/11/27 05:27:41;;;;;;;2.47;0.88;;;;;;;10.46;42.81;100729.94;5034613;28;20120;-71
2021/11/27 05:30:10;;;;;;;7.43;0.88;;;;;;;10.70;42.35;100739.72;5052480;28;20025;-70
2021/11/27 05:32:49;;;;;;;7.47;1.50;;;;;;;10.28;43.37;100745.41;5052545;28;20047;-71
2021/11/27 05:35:15;;;;;;;6.85;1.55;;;;;;;9.88;44.37;100729.97;5052650;28;20028;-71
2021/11/27 05:37:43;;;;;;;4.68;1.17;;;;;;;10.23;43.74;100742.00;5052421;28;20028;-71
2021/11/27 05:40:10;;;;;;;2.78;1.08;;;;;;;10.41;43.17;100743.72;5051515;28;20021;-71
2021/11/27 05:42:36;;;;;;;3.55;1.30;;;;;;;10.41;43.41;100746.44;5051908;28;20033;-71
2021/11/27 05:45:03;;;;;;;8.32;1.92;;;;;;;10.14;43.83;100741.91;5052062;28;20562;-70
2021/11/27 05:47:29;;;;;;;2.97;1.20;;;;;;;10.18;43.84;100745.63;5052030;28;20119;-71
2021/11/27 05:49:55;;;;;;;1.88;1.08;;;;;;;10.61;42.80;100744.31;5052502;28;20025;-71
2021/11/27 05:52:20;;;;;;;8.70;1.38;;;;;;;10.74;42.49;100754.38;5052244;28;20538;-71
2021/11/27 05:54:46;;;;;;;7.07;0.98;;;;;;;10.54;43.03;100774.81;5052229;28;20096;-71
2021/11/27 05:57:12;;;;;;;4.15;1.10;;;;;;;10.32;44.16;100766.63;5052542;28;20025;-70
2021/11/27 05:59:38;;;;;;;3.83;1.33;;;;;;;10.23;44.04;100750.19;5056347;28;20021;-70
2021/11/27 06:02:04;;;;;;;4.47;1.00;;;;;;;10.68;42.97;100769.28;5056354;28;20032;-71
2021/11/27 06:04:29;;;;;;;7.80;1.92;;;;;;;10.56;43.31;100778.03;5056270;28;20017;-71
2021/11/27 06:06:56;;;;;;;3.15;1.42;;;;;;;9.80;44.58;100785.28;5056409;28;20174;-71
2021/11/27 06:09:23;;;;;;;6.85;1.40;;;;;;;10.20;43.45;100775.34;5056503;28;20090;-71
2021/11/27 06:11:49;;;;;;;4.75;1.33;;;;;;;10.63;42.80;100769.41;5056119;28;20067;-71
2021/11/27 06:14:15;;;;;;;8.20;2.03;;;;;;;10.70;42.50;100776.03;5056064;28;20036;-71
2021/11/27 06:16:41;;;;;;;4.55;1.52;;;;;;;10.86;41.90;100790.13;5056165;28;20025;-71
2021/11/27 06:19:06;;;;;;;7.25;2.65;;;;;;;11.06;41.52;100780.56;5056086;28;20074;-71
2021/11/27 06:21:33;;;;;;;9.10;1.45;;;;;;;10.53;42.74;100790.41;5056044;28;20025;-71
2021/11/27 06:23:58;;;;;;;4.80;1.50;;;;;;;10.87;41.87;100791.72;5056283;28;20139;-70
2021/11/27 06:26:25;;;;;;;4.88;1.38;;;;;;;10.83;41.85;100796.22;5055833;28;20055;-70
2021/11/27 06:28:51;;;;;;;4.95;1.27;;;;;;;10.27;43.23;100800.31;5055926;28;20048;-71
2021/11/27 06:31:17;;;;;;;7.80;1.75;;;;;;;10.42;42.78;100791.75;5055891;28;20021;-71
2021/11/27 06:33:43;;;;;;;6.78;1.77;;;;;;;10.48;43.14;100793.25;5055766;28;20094;-71
2021/11/27 06:36:09;;;;;;;10.63;1.27;;;;;;;10.73;42.30;100780.06;5055735;28;20487;-71
2021/11/27 06:38:35;;;;;;;6.40;1.73;;;;;;;10.57;42.92;100780.47;5055712;28;20048;-71
2021/11/27 06:41:01;;;;;;;6.35;1.60;;;;;;;10.24;43.81;100787.31;5055610;28;20029;-71
2021/11/27 06:43:27;;;;;;;8.82;1.80;;;;;;;10.17;43.88;100778.69;5055645;28;20025;-71
2021/11/27 06:45:53;;;;;;;6.22;2.17;;;;;;;10.06;44.23;100793.72;5055132;28;20044;-70
2021/11/27 06:48:19;;;;;;;11.93;2.25;;;;;;;10.50;43.13;100820.25;5037632;28;20021;-70
2021/11/27 06:50:45;;;;;;;6.90;1.65;;;;;;;10.62;42.78;100776.00;5055434;28;20060;-70
2021/11/27 06:53:11;;;;;;;8.45;1.90;;;;;;;10.20;43.63;100789.00;5055356;28;20107;-71
2021/11/27 06:55:37;;;;;;;7.40;1.80;;;;;;;10.60;42.90;100811.84;5055275;28;20025;-71
2021/11/27 06:58:03;;;;;;;7.40;1.75;;;;;;;9.91;44.06;100816.69;5055328;28;20031;-71
2021/11/27 07:00:28;;;;;;;3.20;1.85;;;;;;;9.93;44.16;100823.47;5055493;28;20108;-71
2021/11/27 07:02:54;;;;;;;4.88;1.30;;;;;;;10.40;42.83;100834.97;5055245;28;20029;-70
2021/11/27 07:05:20;;;;;;;5.80;1.50;;;;;;;10.54;42.37;100832.19;5055398;28;20075;-70
2021/11/27 07:07:46;;;;;;;8.33;1.80;;;;;;;10.00;43.23;100847.59;5054999;28;20041;-71
2021/11/27 07:10:11;;;;;;;3.90;1.25;;;;;;;10.10;43.08;100846.56;5054823;28;20036;-70
2021/11/27 07:12:38;;;;;;;7.28;1.17;;;;;;;10.20;42.09;100849.91;5055035;28;20460;-70
2021/11/27 07:15:05;;;;;;;5.53;1.25;;;;;;;9.91;42.71;100838.53;5055014;28;20033;-71
2021/11/27 07:17:31;;;;;;;10.10;1.52;;;;;;;10.32;42.01;100846.66;5054958;28;20502;-71
2021/11/27 07:19:57;;;;;;;7.72;1.65;;;;;;;10.37;41.45;100851.19;5054826;28;20033;-71
2021/11/27 07:22:24;;;;;;;7.90;2.03;;;;;;;10.45;41.42;100834.88;5055151;28;20017;-74
2021/11/27 07:24:50;;;;;;;6.40;1.30;;;;;;;9.97;41.75;100862.69;5048693;28;20029;-70
2021/11/27 07:27:15;;;;;;;3.80;1.20;;;;;;;10.49;40.97;100854.16;5036750;28;20524;-71
2021/11/27 07:29:41;;;;;;;6.28;1.73;;;;;;;10.51;40.52;100873.81;5054683;28;20021;-74
2021/11/27 07:32:07;;;;;;;6.43;1.27;;;;;;;10.35;41.07;100862.41;5054631;28;20017;-71
2021/11/27 07:34:33;;;;;;;3.20;1.45;;;;;;;10.36;40.93;100857.78;5054696;28;20055;-71
2021/11/27 07:36:59;;;;;;;6.90;1.63;;;;;;;10.51;40.26;100869.16;5054485;28;20025;-71
2021/11/27 07:39:24;;;;;;;3.03;0.90;;;;;;;10.55;40.34;100878.34;5054485;28;20029;-72
2021/11/27 07:41:50;;;;;;;8.52;1.52;;;;;;;10.76;39.55;100877.84;5054707;28;20514;-70
2021/11/27 07:44:16;;;;;;;2.67;1.38;;;;;;;10.36;39.57;100894.09;5054230;28;20510;-73
2021/11/27 07:46:42;;;;;;;5.07;1.30;;;;;;;10.68;39.31;100912.19;5054297;28;20017;-71
2021/11/27 07:49:08;;;;;;;5.38;1.55;;;;;;;10.18;39.66;100922.28;5054464;28;20071;-71
2021/11/27 07:51:33;;;;;;;47.67;21.67;;;;;;;10.76;38.60;100925.13;5054308;28;20100;-71
2021/11/27 07:54:00;;;;;;;16.65;9.68;;;;;;;10.56;38.67;100950.97;5036504;28;20108;-74
2021/11/27 07:56:26;;;;;;;14.32;8.50;;;;;;;10.69;38.62;100946.59;5054141;28;20025;-71
2021/11/27 07:58:53;;;;;;;6.25;3.50;;;;;;;10.66;38.67;100946.44;5054140;28;20079;-71
2021/11/27 08:01:19;;;;;;;5.72;2.70;;;;;;;10.76;38.46;100943.44;5054069;28;20020;-72
2021/11/27 08:03:44;;;;;;;9.63;2.65;;;;;;;10.92;38.38;100955.63;5036174;28;20021;-72
2021/11/27 08:06:10;;;;;;;13.38;7.35;;;;;;;10.89;38.42;100959.00;5053950;28;20078;-71
2021/11/27 08:08:37;;;;;;;10.40;6.10;;;;;;;10.76;38.59;100978.97;5054074;28;20078;-72
2021/11/27 08:11:02;;;;;;;9.07;5.05;;;;;;;10.94;37.99;100972.53;5036076;28;20029;-71
2021/11/27 08:13:28;;;;;;;11.15;3.45;;;;;;;10.76;38.09;100978.97;5054243;28;20578;-71
2021/11/27 08:15:54;;;;;;;14.20;7.55;;;;;;;10.92;37.70;100972.03;5053899;28;20491;-74
2021/11/27 08:18:20;;;;;;;7.05;4.20;;;;;;;10.77;37.72;100981.41;5053839;28;20017;-72
2021/11/27 08:20:49;;;;;;;11.00;5.15;;;;;;;11.06;37.16;100983.72;5053033;28;20064;-71
2021/11/27 08:23:19;;;;;;;8.10;5.45;;;;;;;10.68;38.33;100993.38;5053825;28;20075;-70
2021/11/27 08:25:46;;;;;;;9.13;2.57;;;;;;;11.29;36.96;100991.94;5053667;28;20036;-70
2021/11/27 08:28:12;;;;;;;11.73;3.03;;;;;;;10.98;37.88;100997.34;5053579;28;20391;-70
2021/11/27 08:30:38;;;;;;;7.75;2.78;;;;;;;11.17;37.59;101016.28;5035752;28;20056;-71
2021/11/27 08:33:03;;;;;;;9.40;2.72;;;;;;;10.97;38.26;101004.72;5053644;28;20079;-74
2021/11/27 08:35:29;;;;;;;6.50;1.75;;;;;;;10.94;38.30;101015.47;5053497;28;20379;-69
2021/11/27 08:37:54;;;;;;;8.75;1.98;;;;;;;11.05;38.17;101031.34;5053507;28;20036;-76
2021/11/27 08:40:20;;;;;;;12.10;4.00;;;;;;;10.77;38.81;101027.06;5053611;28;20067;-71
2021/11/27 08:42:46;;;;;;;7.93;2.38;;;;;;;10.48;39.80;101032.88;5053452;28;20021;-70
2021/11/27 08:45:13;;;;;;;7.65;1.95;;;;;;;10.94;39.04;101035.41;5053120;28;20449;-72
2021/11/27 08:47:40;;;;;;;3.83;1.35;;;;;;;10.18;40.36;101037.78;5053295;28;20029;-71
2021/11/27 08:50:07;;;;;;;10.10;2.65;;;;;;;11.07;38.91;101044.69;5053065;28;20491;-71
2021/11/27 08:52:33;;;;;;;6.22;1.55;;;;;;;10.46;40.16;101049.56;5053042;28;20104;-70
2021/11/27 08:54:58;;;;;;;9.88;2.10;;;;;;;9.91;41.55;101054.97;5047855;28;20108;-77
2021/11/27 08:57:24;;;;;;;10.93;3.33;;;;;;;10.33;40.79;101066.75;5052670;28;20428;-68
2021/11/27 08:59:51;;;;;;;5.53;2.42;;;;;;;10.32;40.80;101059.69;5052874;28;20028;-70
2021/11/27 09:02:16;;;;;;;5.65;1.88;;;;;;;10.69;39.85;101093.38;5029879;28;20045;-74
2021/11/27 09:04:42;;;;;;;5.97;1.98;;;;;;;10.98;39.47;101079.38;5024287;28;20400;-74
2021/11/27 09:07:08;;;;;;;7.00;2.80;;;;;;;10.74;39.83;101087.81;5038923;28;20079;-74
2021/11/27 09:09:35;;;;;;;6.93;2.30;;;;;;;10.48;40.14;101090.25;5038608;28;20049;-74
2021/11/27 09:12:04;;;;;;;7.47;2.35;;;;;;;11.17;38.65;101084.66;5038804;28;20492;-73
2021/11/27 09:14:29;;;;;;;7.68;1.35;;;;;;;10.44;39.57;101105.63;5038373;28;20037;-70
2021/11/27 09:16:55;;;;;;;10.23;1.90;;;;;;;10.49;39.27;101111.78;5038505;28;20579;-74
2021/11/27 09:19:21;;;;;;;5.30;1.75;;;;;;;10.63;39.41;101100.06;5040107;28;20459;-77
2021/11/27 09:21:50;;;;;;;7.68;1.63;;;;;;;10.80;39.36;101106.50;5041952;28;20025;-81
2021/11/27 09:24:16;;;;;;;8.10;1.90;;;;;;;10.78;39.20;101106.00;5023783;28;20095;-84
2021/11/27 09:26:42;;;;;;;5.22;1.65;;;;;;;10.93;38.77;101126.75;5019702;28;20467;-72
2021/11/27 09:29:09;;;;;;;7.20;4.00;;;;;;;11.02;38.53;101119.44;5037545;28;20108;-73
2021/11/27 09:31:39;;;;;;;8.23;4.43;;;;;;;10.63;39.25;101121.91;5043391;28;20029;-73
2021/11/27 09:34:05;;;;;;;;;;;;;;;10.63;38.83;101127.38;5039542;28;20035;-81
2021/11/27 09:36:31;;;;;;;8.15;2.88;;;;;;;11.09;38.17;101128.03;5028540;28;19913;-80
2021/11/27 09:38:56;;;;;;;10.20;3.75;;;;;;;11.43;37.61;101140.44;5042653;28;20032;-77
2021/11/27 09:41:29;;;;;;;10.15;5.10;;;;;;;10.72;38.70;101145.50;5052707;28;20025;-80
2021/11/27 09:43:57;;;;;;;4.63;1.43;;;;;;;10.90;38.93;101137.50;5052504;28;20032;-73
2021/11/27 09:46:25;;;;;;;9.20;3.00;;;;;;;11.02;38.83;101138.59;5037307;28;20496;-78
2021/11/27 09:48:55;;;;;;;9.43;2.40;;;;;;;11.33;38.43;101151.59;5021415;28;20797;-74
2021/11/27 09:51:24;;;;;;;5.90;1.90;;;;;;;10.98;39.24;101158.66;5024689;28;20460;-70
2021/11/27 09:53:51;;;;;;;11.27;3.58;;;;;;;10.61;39.77;101165.94;5040669;28;20739;-71
2021/11/27 09:56:19;;;;;;;9.32;3.65;;;;;;;11.04;38.85;101154.72;5038354;28;20029;-70
2021/11/27 09:58:45;;;;;;;9.25;3.08;;;;;;;11.44;38.42;101185.84;5041067;28;20036;-76
2021/11/27 10:01:14;;;;;;;13.07;2.10;;;;;;;11.34;38.59;101175.13;5047479;28;20029;-71
2021/11/27 10:03:48;;;;;;;9.95;3.13;;;;;;;10.92;38.93;101185.28;5041019;28;20422;-72
2021/11/27 10:06:16;;;;;;;7.38;3.60;;;;;;;10.98;38.91;101178.59;5048566;28;20028;-73
2021/11/27 10:08:41;;;;;;;7.72;4.05;;;;;;;11.19;39.26;101183.66;5047139;28;20047;-75
2021/11/27 10:11:07;;;;;;;8.55;3.55;;;;;;;11.29;39.18;101208.88;5038507;28;20480;-73
2021/11/27 10:13:32;;;;;;;8.48;2.55;;;;;;;11.32;39.37;101189.09;5039656;28;20112;-73
2021/11/27 10:15:58;;;;;;;9.75;4.03;;;;;;;11.16;39.82;101195.19;5037784;28;22203;-76
2021/11/27 10:18:26;;;;;;;8.77;1.27;;;;;;;10.36;40.88;101194.56;5039089;28;20084;-71
2021/11/27 10:21:17;;;;;;;2.92;1.67;;;;;;;11.27;39.75;101207.56;5043172;28;20033;-71
2021/11/27 10:23:44;;;;;;;4.47;1.85;;;;;;;10.96;40.38;101219.13;5038825;28;20120;-73
2021/11/27 10:26:32;;;;;;;5.53;2.97;;;;;;;11.12;39.64;101216.88;5025384;28;20025;-75
2021/11/27 10:29:35;;;;;;;5.90;2.60;;;;;;;11.50;39.15;101205.69;5017797;28;20443;-71
2021/11/27 10:32:16;;;;;;;5.95;1.52;;;;;;;11.78;38.92;101220.91;4969448;28;20046;-71
2021/11/27 10:34:50;;;;;;;7.07;2.03;;;;;;;11.22;39.57;101213.13;5017077;28;20040;-71
2021/11/27 10:37:31;;;;;;;7.53;1.85;;;;;;;11.77;38.56;101230.22;5042165;28;20522;-70
2021/11/27 10:40:10;;;;;;;3.65;1.98;;;;;;;11.87;38.65;101221.03;5039778;28;20041;-70
2021/11/27 10:42:37;;;;;;;8.85;2.47;;;;;;;11.83;38.49;101230.97;5039818;28;20457;-73
2021/11/27 10:45:24;;;;;;;8.18;1.42;;;;;;;11.89;38.41;101244.22;5023139;28;20117;-73
2021/11/27 10:48:05;;;;;;;9.18;2.05;;;;;;;11.46;38.84;101251.19;5044489;28;20422;-71
2021/11/27 10:50:41;;;;;;;5.32;1.38;;;;;;;11.79;38.88;101251.81;5043623;28;20056;-73
2021/11/27 10:53:11;;;;;;;4.93;1.20;;;;;;;11.55;38.73;101252.88;5043022;28;20075;-73
2021/11/27 10:55:39;;;;;;;4.38;1.30;;;;;;;12.08;38.18;101246.78;5038111;28;20045;-71
2021/11/27 10:58:07;;;;;;;7.07;2.30;;;;;;;12.40;37.83;101250.41;5041617;28;20049;-73
2021/11/27 11:00:39;;;;;;;9.48;1.88;;;;;;;12.29;37.92;101260.81;5042622;28;20049;-73
2021/11/27 11:03:09;;;;;;;7.57;1.30;;;;;;;12.32;37.83;101264.84;5026151;28;20033;-73
2021/11/27 11:05:40;;;;;;;4.40;1.20;;;;;;;12.16;38.22;101248.78;5043246;28;20443;-72
2021/11/27 11:08:07;;;;;;;10.18;1.67;;;;;;;12.23;38.19;101270.25;5033780;28;20037;-72
2021/11/27 11:10:38;;;;;;;8.43;1.55;;;;;;;12.26;37.84;101271.59;5027622;28;20498;-71
2021/11/27 11:13:09;;;;;;;9.52;1.45;;;;;;;12.51;37.60;101262.72;5029754;28;20539;-71
2021/11/27 11:15:46;;;;;;;3.97;1.30;;;;;;;12.65;37.13;101265.41;5012443;28;20068;-75
2021/11/27 11:18:21;;;;;;;2.03;1.05;;;;;;;12.54;37.34;101280.47;5030337;28;20033;-70
2021/11/27 11:20:47;;;;;;;5.63;1.20;;;;;;;12.34;37.43;101284.53;5012989;28;20018;-70
2021/11/27 11:23:20;;;;;;;4.88;1.48;;;;;;;12.57;37.14;101275.19;5030374;28;20033;-72
2021/11/27 11:26:00;;;;;;;7.88;1.95;;;;;;;12.73;36.78;101268.19;5030647;28;20045;-73